Time;durP1;ratioP1;P1;durP2;ratioP2;P2;SDS_P1;SDS_P2;PMS_P1;PMS_P2;Temp;Humidity;BMP_temperature;BMP_pressure;BME280_temperature;BME280_humidity;BME280_pressure;Samples;Min_cycle;Max_cycle;Signal;HPM_P1;HPM_P2
2021/05/20 00:00:30;;;;;;;5.82;3.67;;;;;;;;;;5025192;28;20033;-68
2021/05/20 00:02:57;;;;;;;7.63;3.38;;;;;;;;;;5011891;28;20479;-69
2021/05/20 00:05:24;;;;;;;5.15;3.10;;;;;;;;;;5010358;28;20101;-69
2021/05/20 00:07:51;;;;;;;7.75;3.55;;;;;;;;;;5015412;28;20034;-69
2021/05/20 00:10:18;;;;;;;7.55;3.70;;;;;;;;;;4996539;28;20113;-69
2021/05/20 00:12:46;;;;;;;8.00;4.80;;;;;;;;;;5015369;28;20474;-69
2021/05/20 00:15:14;;;;;;;7.85;3.67;;;;;;;;;;5017545;28;20120;-68
2021/05/20 00:17:41;;;;;;;7.65;3.67;;;;;;;;;;5034788;28;20022;-68
2021/05/20 00:20:08;;;;;;;10.02;4.10;;;;;;;;;;5013202;28;20436;-68
2021/05/20 00:22:36;;;;;;;4.20;3.50;;;;;;;;;;5034703;28;20026;-69
2021/05/20 00:25:03;;;;;;;5.00;3.15;;;;;;;;;;5014415;28;20025;-69
2021/05/20 00:27:31;;;;;;;5.53;2.72;;;;;;;;;;5034857;28;20025;-68
2021/05/20 00:29:58;;;;;;;5.20;3.03;;;;;;;;;;5006442;28;20033;-68
2021/05/20 00:32:25;;;;;;;6.22;3.33;;;;;;;;;;5014397;28;20038;-69
2021/05/20 00:34:52;;;;;;;6.78;3.80;;;;;;;;;;4992591;28;20022;-68
2021/05/20 00:37:19;;;;;;;8.45;3.85;;;;;;;;;;5011392;28;20038;-68
2021/05/20 00:39:47;;;;;;;8.85;3.42;;;;;;;;;;5009078;28;20037;-68
2021/05/20 00:42:14;;;;;;;10.02;3.00;;;;;;;;;;5008838;28;20022;-67
2021/05/20 00:44:51;;;;;;;8.80;3.65;;;;;;;;;;5009812;28;20423;-68
2021/05/20 00:47:22;;;;;;;6.75;3.20;;;;;;;;;;5007872;28;20112;-67
2021/05/20 00:49:49;;;;;;;7.10;3.17;;;;;;;;;;5011292;28;20025;-67
2021/05/20 00:52:17;;;;;;;6.07;3.25;;;;;;;;;;5014674;28;20026;-67
2021/05/20 00:54:44;;;;;;;6.72;2.70;;;;;;;;;;5013021;28;20040;-67
2021/05/20 00:57:12;;;;;;;7.25;2.70;;;;;;;;;;5014599;28;20033;-67
2021/05/20 00:59:40;;;;;;;8.35;2.63;;;;;;;;;;5012756;28;20045;-67
2021/05/20 01:02:07;;;;;;;5.20;2.45;;;;;;;;;;5008847;28;20395;-67
2021/05/20 01:04:34;;;;;;;7.70;3.05;;;;;;;;;;5024489;28;20416;-67
2021/05/20 01:07:01;;;;;;;7.78;3.00;;;;;;;;;;5014274;28;20053;-68
2021/05/20 01:09:29;;;;;;;7.82;2.35;;;;;;;;;;5013067;28;20014;-67
2021/05/20 01:11:57;;;;;;;5.43;2.38;;;;;;;;;;5014164;28;20541;-67
2021/05/20 01:14:24;;;;;;;6.85;2.40;;;;;;;;;;5009492;28;20475;-68
2021/05/20 01:16:51;;;;;;;6.38;2.03;;;;;;;;;;4995375;28;20050;-68
2021/05/20 01:19:18;;;;;;;6.78;2.00;;;;;;;;;;5013796;28;20045;-69
2021/05/20 01:21:45;;;;;;;6.28;2.00;;;;;;;;;;5010021;28;20026;-67
2021/05/20 01:24:13;;;;;;;3.88;1.75;;;;;;;;;;5013214;28;20026;-68
2021/05/20 01:26:41;;;;;;;9.38;3.08;;;;;;;;;;5011894;28;20509;-69
2021/05/20 01:29:08;;;;;;;7.88;3.20;;;;;;;;;;5014068;28;20042;-68
2021/05/20 01:31:35;;;;;;;4.78;2.40;;;;;;;;;;5010425;28;20030;-68
2021/05/20 01:34:03;;;;;;;5.30;2.40;;;;;;;;;;5010470;28;20523;-68
2021/05/20 01:36:31;;;;;;;5.63;2.50;;;;;;;;;;5012204;28;20026;-67
2021/05/20 01:39:02;;;;;;;5.22;1.90;;;;;;;;;;5004467;28;20053;-69
2021/05/20 01:41:29;;;;;;;4.38;1.90;;;;;;;;;;5011770;28;20113;-68
2021/05/20 01:43:56;;;;;;;3.83;1.85;;;;;;;;;;5013424;28;20018;-68
2021/05/20 01:46:24;;;;;;;4.45;1.65;;;;;;;;;;5012174;28;20053;-68
2021/05/20 01:48:55;;;;;;;5.00;1.90;;;;;;;;;;4995561;28;20037;-68
2021/05/20 01:51:23;;;;;;;6.05;2.20;;;;;;;;;;5011633;28;20022;-68
2021/05/20 01:53:53;;;;;;;5.15;2.13;;;;;;;;;;5013622;28;20053;-67
2021/05/20 01:56:21;;;;;;;7.38;2.38;;;;;;;;;;5012075;28;20025;-68
2021/05/20 01:58:49;;;;;;;6.63;1.88;;;;;;;;;;5002003;28;20041;-68
2021/05/20 02:01:16;;;;;;;6.35;1.95;;;;;;;;;;5006341;28;20021;-68
2021/05/20 02:03:43;;;;;;;6.85;2.65;;;;;;;;;;5013221;28;20041;-68
2021/05/20 02:06:11;;;;;;;6.78;2.17;;;;;;;;;;5011290;28;20070;-68
2021/05/20 02:08:39;;;;;;;5.90;2.83;;;;;;;;;;5012901;28;20040;-69
2021/05/20 02:11:07;;;;;;;3.65;1.85;;;;;;;;;;5008812;28;20104;-67
2021/05/20 02:13:35;;;;;;;7.50;2.00;;;;;;;;;;5012848;28;20049;-68
2021/05/20 02:16:02;;;;;;;6.07;1.90;;;;;;;;;;5009304;28;20073;-68
2021/05/20 02:18:29;;;;;;;5.53;1.92;;;;;;;;;;5011440;28;20501;-68
2021/05/20 02:20:56;;;;;;;6.90;2.00;;;;;;;;;;5005198;28;20457;-69
2021/05/20 02:23:24;;;;;;;4.63;1.13;;;;;;;;;;4992380;28;20026;-68
2021/05/20 02:25:51;;;;;;;4.05;1.30;;;;;;;;;;4990783;28;20092;-68
2021/05/20 02:28:18;;;;;;;3.28;1.63;;;;;;;;;;5012477;28;20056;-68
2021/05/20 02:30:45;;;;;;;3.20;1.73;;;;;;;;;;5011686;28;20041;-68
2021/05/20 02:33:12;;;;;;;3.70;1.50;;;;;;;;;;5011857;28;20510;-68
2021/05/20 02:35:39;;;;;;;6.63;1.65;;;;;;;;;;5009763;28;20030;-68
2021/05/20 02:38:07;;;;;;;2.65;1.02;;;;;;;;;;5012915;28;20088;-68
2021/05/20 02:40:35;;;;;;;5.13;1.48;;;;;;;;;;5011586;28;20084;-68
2021/05/20 02:43:02;;;;;;;6.35;1.75;;;;;;;;;;5013172;28;20026;-69
2021/05/20 02:45:30;;;;;;;4.65;2.10;;;;;;;;;;5011544;28;20104;-69
2021/05/20 02:47:57;;;;;;;6.43;2.35;;;;;;;;;;5008094;28;20030;-68
2021/05/20 02:50:25;;;;;;;5.00;2.05;;;;;;;;;;5001917;28;20538;-68
2021/05/20 02:52:53;;;;;;;8.15;2.10;;;;;;;;;;4986263;28;20136;-68
2021/05/20 02:55:24;;;;;;;6.05;1.95;;;;;;;;;;5006533;28;20545;-69
2021/05/20 02:57:58;;;;;;;5.57;2.15;;;;;;;;;;5009873;28;20395;-69
2021/05/20 03:00:32;;;;;;;4.72;2.00;;;;;;;;;;4992364;28;20121;-70
2021/05/20 03:02:59;;;;;;;5.97;1.98;;;;;;;;;;5012199;28;20100;-69
2021/05/20 03:05:27;;;;;;;4.90;1.95;;;;;;;;;;5011585;28;20080;-69
2021/05/20 03:07:57;;;;;;;5.75;2.33;;;;;;;;;;5011278;28;20108;-69
2021/05/20 03:10:25;;;;;;;3.70;1.60;;;;;;;;;;5008024;28;20474;-70
2021/05/20 03:12:52;;;;;;;5.35;2.03;;;;;;;;;;5004545;28;20072;-70
2021/05/20 03:15:20;;;;;;;6.13;2.13;;;;;;;;;;5005659;28;20111;-69
2021/05/20 03:17:47;;;;;;;5.55;2.13;;;;;;;;;;5008477;28;20057;-69
2021/05/20 03:20:14;;;;;;;7.28;2.35;;;;;;;;;;5008730;28;20026;-70
2021/05/20 03:22:41;;;;;;;3.80;1.70;;;;;;;;;;5005926;28;20482;-70
2021/05/20 03:25:09;;;;;;;3.70;1.30;;;;;;;;;;5007409;28;20099;-70
2021/05/20 03:27:36;;;;;;;4.07;1.10;;;;;;;;;;5007716;28;20630;-70
2021/05/20 03:30:03;;;;;;;1.98;1.00;;;;;;;;;;5000706;28;20080;-69
2021/05/20 03:32:31;;;;;;;4.28;1.17;;;;;;;;;;5007852;28;20522;-68
2021/05/20 03:34:58;;;;;;;4.28;1.45;;;;;;;;;;5006318;28;20075;-70
2021/05/20 03:37:25;;;;;;;2.03;0.40;;;;;;;;;;5009494;28;20101;-69
2021/05/20 03:39:52;;;;;;;4.20;0.85;;;;;;;;;;5006370;28;20078;-68
2021/05/20 03:42:19;;;;;;;1.50;0.40;;;;;;;;;;5011088;28;20482;-69
2021/05/20 03:44:46;;;;;;;1.67;0.32;;;;;;;;;;5009127;28;20037;-68
2021/05/20 03:47:13;;;;;;;1.38;0.50;;;;;;;;;;5012406;28;20518;-68
2021/05/20 03:49:40;;;;;;;2.72;0.63;;;;;;;;;;4993098;28;20053;-68
2021/05/20 03:52:08;;;;;;;2.05;0.52;;;;;;;;;;5008145;28;20386;-70
2021/05/20 03:54:42;;;;;;;2.58;0.40;;;;;;;;;;5011037;28;20022;-68
2021/05/20 03:57:09;;;;;;;2.42;0.68;;;;;;;;;;5011274;28;20574;-68
2021/05/20 03:59:36;;;;;;;1.08;0.40;;;;;;;;;;5010795;28;20057;-68
2021/05/20 04:02:04;;;;;;;1.58;0.75;;;;;;;;;;5007585;28;20430;-69
2021/05/20 04:04:31;;;;;;;2.95;0.93;;;;;;;;;;4989098;28;20034;-69
2021/05/20 04:06:58;;;;;;;3.42;0.70;;;;;;;;;;5012240;28;20018;-68
2021/05/20 04:09:25;;;;;;;4.10;1.30;;;;;;;;;;5010701;28;20029;-69
2021/05/20 04:11:52;;;;;;;3.72;0.70;;;;;;;;;;5009489;28;20018;-68
2021/05/20 04:14:19;;;;;;;3.45;1.00;;;;;;;;;;5009624;28;20080;-69
2021/05/20 04:16:47;;;;;;;4.75;0.90;;;;;;;;;;5009975;28;20053;-68
2021/05/20 04:19:15;;;;;;;4.93;1.10;;;;;;;;;;5009901;28;20026;-69
2021/05/20 04:21:43;;;;;;;6.13;1.10;;;;;;;;;;4994004;28;20085;-69
2021/05/20 04:24:10;;;;;;;3.67;1.50;;;;;;;;;;5011178;28;20037;-68
2021/05/20 04:26:37;;;;;;;3.47;0.65;;;;;;;;;;5005526;28;20034;-69
2021/05/20 04:29:05;;;;;;;2.10;0.73;;;;;;;;;;5010981;28;20145;-69
2021/05/20 04:31:35;;;;;;;1.92;0.85;;;;;;;;;;5011181;28;20482;-70
2021/05/20 04:34:02;;;;;;;3.78;1.00;;;;;;;;;;5013947;28;20037;-69
2021/05/20 04:36:29;;;;;;;4.55;0.95;;;;;;;;;;5013226;28;20033;-69
2021/05/20 04:38:56;;;;;;;2.58;1.15;;;;;;;;;;5014820;28;20458;-68
2021/05/20 04:41:24;;;;;;;7.05;1.50;;;;;;;;;;5011473;28;20034;-68
2021/05/20 04:43:51;;;;;;;4.45;1.05;;;;;;;;;;5009949;28;20050;-68
2021/05/20 04:46:18;;;;;;;6.20;1.38;;;;;;;;;;5012789;28;20061;-70
2021/05/20 04:48:45;;;;;;;6.05;1.00;;;;;;;;;;5014464;28;20038;-68
2021/05/20 04:51:12;;;;;;;2.92;1.00;;;;;;;;;;5013803;28;20083;-69
2021/05/20 04:53:40;;;;;;;2.75;0.70;;;;;;;;;;5014596;28;20499;-69
2021/05/20 04:56:08;;;;;;;5.75;1.20;;;;;;;;;;5011683;28;20037;-68
2021/05/20 04:58:35;;;;;;;4.05;1.42;;;;;;;;;;5011146;28;20477;-68
2021/05/20 05:01:02;;;;;;;2.00;0.93;;;;;;;;;;5011840;28;20026;-69
2021/05/20 05:03:29;;;;;;;1.33;0.65;;;;;;;;;;5006674;28;20156;-69
2021/05/20 05:05:56;;;;;;;3.25;0.98;;;;;;;;;;5011416;28;20037;-68
2021/05/20 05:08:23;;;;;;;1.30;0.52;;;;;;;;;;5011980;28;20606;-69
2021/05/20 05:10:50;;;;;;;5.55;0.93;;;;;;;;;;5009885;28;20372;-68
2021/05/20 05:13:21;;;;;;;5.03;1.00;;;;;;;;;;5011946;28;20053;-69
2021/05/20 05:15:48;;;;;;;4.45;0.68;;;;;;;;;;5011386;28;20132;-68
2021/05/20 05:18:15;;;;;;;4.65;1.33;;;;;;;;;;4995141;28;20486;-69
2021/05/20 05:20:42;;;;;;;3.00;0.77;;;;;;;;;;4990879;28;20089;-69
2021/05/20 05:23:09;;;;;;;2.92;0.68;;;;;;;;;;5008355;28;20101;-69
2021/05/20 05:25:37;;;;;;;6.00;1.00;;;;;;;;;;5010789;28;20022;-68
2021/05/20 05:28:05;;;;;;;2.53;1.10;;;;;;;;;;5009581;28;20046;-69
2021/05/20 05:30:32;;;;;;;2.55;0.75;;;;;;;;;;5008989;28;20029;-69
2021/05/20 05:32:59;;;;;;;4.38;1.10;;;;;;;;;;4992056;28;20115;-69
2021/05/20 05:35:27;;;;;;;4.18;0.95;;;;;;;;;;5010624;28;20449;-68
2021/05/20 05:37:54;;;;;;;5.18;0.88;;;;;;;;;;5013274;28;20028;-69
2021/05/20 05:40:21;;;;;;;4.88;0.80;;;;;;;;;;5011668;28;20033;-69
2021/05/20 05:42:48;;;;;;;4.05;0.88;;;;;;;;;;5013455;28;20092;-69
2021/05/20 05:45:15;;;;;;;4.72;0.85;;;;;;;;;;5010727;28;20045;-69
2021/05/20 05:47:43;;;;;;;2.97;0.70;;;;;;;;;;5013321;28;20030;-69
2021/05/20 05:50:14;;;;;;;3.00;1.15;;;;;;;;;;5012232;28;20475;-69
2021/05/20 05:52:42;;;;;;;4.88;0.80;;;;;;;;;;5013491;28;20100;-68
2021/05/20 05:55:10;;;;;;;4.22;1.17;;;;;;;;;;5011598;28;20025;-69
2021/05/20 05:57:37;;;;;;;3.13;0.68;;;;;;;;;;5008776;28;20087;-68
2021/05/20 06:00:05;;;;;;;1.23;0.50;;;;;;;;;;5004092;28;20038;-69
2021/05/20 06:02:32;;;;;;;5.55;1.13;;;;;;;;;;5004910;28;20414;-69
2021/05/20 06:05:00;;;;;;;4.97;0.73;;;;;;;;;;5007567;28;20045;-68
2021/05/20 06:07:27;;;;;;;4.68;0.75;;;;;;;;;;5012215;28;20032;-68
2021/05/20 06:09:54;;;;;;;2.90;0.60;;;;;;;;;;5010953;28;20029;-68
2021/05/20 06:12:21;;;;;;;6.00;1.15;;;;;;;;;;5012923;28;20034;-69
2021/05/20 06:14:48;;;;;;;3.00;0.95;;;;;;;;;;5009475;28;20357;-69
2021/05/20 06:17:15;;;;;;;5.63;1.42;;;;;;;;;;5012553;28;20026;-68
2021/05/20 06:19:42;;;;;;;4.63;1.25;;;;;;;;;;5010155;28;20071;-69
2021/05/20 06:22:09;;;;;;;5.30;0.98;;;;;;;;;;5012326;28;20021;-69
2021/05/20 06:24:36;;;;;;;5.05;1.17;;;;;;;;;;5010501;28;20442;-69
2021/05/20 06:27:04;;;;;;;5.35;1.08;;;;;;;;;;5009384;28;20113;-69
2021/05/20 06:29:31;;;;;;;3.05;1.02;;;;;;;;;;5007086;28;20487;-68
2021/05/20 06:31:58;;;;;;;8.45;1.17;;;;;;;;;;5008640;28;20111;-69
2021/05/20 06:34:25;;;;;;;7.95;1.38;;;;;;;;;;5006553;28;20041;-70
2021/05/20 06:36:56;;;;;;;10.05;2.10;;;;;;;;;;5011414;28;20482;-69
2021/05/20 06:39:23;;;;;;;13.50;2.60;;;;;;;;;;5012118;28;20502;-69
2021/05/20 06:41:50;;;;;;;12.82;2.65;;;;;;;;;;5011568;28;20096;-69
2021/05/20 06:44:17;;;;;;;8.38;2.00;;;;;;;;;;5012472;28;20506;-69
2021/05/20 06:46:45;;;;;;;6.85;2.03;;;;;;;;;;5009101;28;20471;-69
2021/05/20 06:49:12;;;;;;;9.05;1.77;;;;;;;;;;5012179;28;20494;-69
2021/05/20 06:51:39;;;;;;;9.30;2.15;;;;;;;;;;5007657;28;20112;-68
2021/05/20 06:54:06;;;;;;;8.75;2.03;;;;;;;;;;5009019;28;20022;-69
2021/05/20 06:56:34;;;;;;;9.05;2.20;;;;;;;;;;5010751;28;20049;-69
2021/05/20 07:01:47;;;;;;;8.35;2.03;;;;;;;;;;5011957;28;20037;-68
2021/05/20 07:04:15;;;;;;;11.23;1.98;;;;;;;;;;5012507;28;20018;-70
2021/05/20 07:06:42;;;;;;;8.32;2.35;;;;;;;;;;5010912;28;20482;-69
2021/05/20 07:09:09;;;;;;;9.68;2.40;;;;;;;;;;5006570;28;20092;-68
2021/05/20 07:11:36;;;;;;;9.23;2.38;;;;;;;;;;5008342;28;20105;-69
2021/05/20 07:14:04;;;;;;;12.35;2.67;;;;;;;;;;5009574;28;20460;-69
2021/05/20 07:16:32;;;;;;;16.10;2.60;;;;;;;;;;5010278;28;20050;-70
2021/05/20 07:19:00;;;;;;;7.47;2.72;;;;;;;;;;5009470;28;20026;-70
2021/05/20 07:21:27;;;;;;;8.85;3.03;;;;;;;;;;5008229;28;20458;-70
2021/05/20 07:23:54;;;;;;;15.88;2.30;;;;;;;;;;5010120;28;20423;-70
2021/05/20 07:26:21;;;;;;;8.05;1.92;;;;;;;;;;5007268;28;20049;-70
2021/05/20 07:28:49;;;;;;;21.77;3.20;;;;;;;;;;4993430;28;20042;-69
2021/05/20 07:31:16;;;;;;;11.27;2.38;;;;;;;;;;5007715;28;20045;-70
2021/05/20 07:33:43;;;;;;;9.23;2.15;;;;;;;;;;5008751;28;20076;-69
2021/05/20 07:36:10;;;;;;;10.32;2.15;;;;;;;;;;5007972;28;20025;-70
2021/05/20 07:38:39;;;;;;;8.63;1.90;;;;;;;;;;5008329;28;20484;-70
2021/05/20 07:41:07;;;;;;;13.43;2.92;;;;;;;;;;5007455;28;20129;-70
2021/05/20 07:43:34;;;;;;;6.38;2.50;;;;;;;;;;5007225;28;20372;-69
2021/05/20 07:46:01;;;;;;;14.55;4.63;;;;;;;;;;5008948;28;20032;-71
2021/05/20 07:48:32;;;;;;;13.10;3.72;;;;;;;;;;5003869;28;20049;-70
2021/05/20 07:51:00;;;;;;;11.80;3.53;;;;;;;;;;5008118;28;20022;-70
2021/05/20 07:53:28;;;;;;;14.45;4.20;;;;;;;;;;5011388;28;20029;-70
2021/05/20 07:55:55;;;;;;;11.48;3.20;;;;;;;;;;5010698;28;20030;-70
2021/05/20 07:58:22;;;;;;;14.40;3.60;;;;;;;;;;5011593;28;20049;-70
2021/05/20 08:00:50;;;;;;;7.75;2.90;;;;;;;;;;5009548;28;20122;-69
2021/05/20 08:03:29;;;;;;;13.70;3.35;;;;;;;;;;5010415;28;20033;-70
2021/05/20 08:06:12;;;;;;;11.45;2.97;;;;;;;;;;5004655;28;20026;-70
2021/05/20 08:11:13;;;;;;;9.32;2.95;;;;;;;;;;5010671;28;20022;-70
2021/05/20 08:13:40;;;;;;;9.98;3.35;;;;;;;;;;5010875;28;20026;-71
2021/05/20 08:16:07;;;;;;;16.10;4.25;;;;;;;;;;5005288;28;20507;-71
2021/05/20 08:18:34;;;;;;;13.88;5.10;;;;;;;;;;5010434;28;20053;-70
2021/05/20 08:21:02;;;;;;;13.25;4.82;;;;;;;;;;5010802;28;20034;-69
2021/05/20 08:23:31;;;;;;;15.85;5.80;;;;;;;;;;4993157;28;20046;-70
2021/05/20 08:25:58;;;;;;;15.70;5.07;;;;;;;;;;4993965;28;20128;-70
2021/05/20 08:28:25;;;;;;;15.05;4.63;;;;;;;;;;5014950;28;20129;-69
2021/05/20 08:30:53;;;;;;;10.45;4.50;;;;;;;;;;5014969;28;20152;-70
2021/05/20 08:33:20;;;;;;;14.98;3.67;;;;;;;;;;5015022;28;20037;-71
2021/05/20 08:35:48;;;;;;;10.18;3.53;;;;;;;;;;5015292;28;20446;-70
2021/05/20 08:38:15;;;;;;;10.88;3.60;;;;;;;;;;5015182;28;20034;-71
2021/05/20 08:40:43;;;;;;;7.97;3.38;;;;;;;;;;5012285;28;20018;-70
2021/05/20 08:43:10;;;;;;;8.40;3.83;;;;;;;;;;5014051;28;20040;-71
2021/05/20 08:45:39;;;;;;;9.18;3.72;;;;;;;;;;5014482;28;20032;-70
2021/05/20 08:48:07;;;;;;;14.50;4.22;;;;;;;;;;5014600;28;20026;-70
2021/05/20 08:50:34;;;;;;;12.02;3.72;;;;;;;;;;5014437;28;20112;-71
2021/05/20 08:53:02;;;;;;;10.13;3.47;;;;;;;;;;5013630;28;20062;-70
2021/05/20 08:55:33;;;;;;;22.80;4.45;;;;;;;;;;5014317;28;20109;-70
2021/05/20 08:58:01;;;;;;;6.45;2.88;;;;;;;;;;5011478;28;20034;-71
2021/05/20 09:00:30;;;;;;;9.57;2.65;;;;;;;;;;5013095;28;20478;-71
2021/05/20 09:03:05;;;;;;;11.93;3.05;;;;;;;;;;5014546;28;20033;-70
2021/05/20 09:05:32;;;;;;;15.07;2.97;;;;;;;;;;5014363;28;20026;-71
2021/05/20 09:08:01;;;;;;;14.23;4.25;;;;;;;;;;5014173;28;20117;-70
2021/05/20 09:10:34;;;;;;;9.68;3.40;;;;;;;;;;5012043;28;20030;-69
2021/05/20 09:13:12;;;;;;;9.40;3.20;;;;;;;;;;5013770;28;20049;-70
2021/05/20 09:15:41;;;;;;;14.35;4.50;;;;;;;;;;4996198;28;20081;-70
2021/05/20 09:18:08;;;;;;;15.15;3.75;;;;;;;;;;4998364;28;20025;-70
2021/05/20 09:20:35;;;;;;;9.35;3.28;;;;;;;;;;5014046;28;20037;-69
2021/05/20 09:23:07;;;;;;;14.48;3.55;;;;;;;;;;5013158;28;20032;-68
2021/05/20 09:25:36;;;;;;;9.60;3.55;;;;;;;;;;5004413;28;20021;-69
2021/05/20 09:28:03;;;;;;;10.35;3.75;;;;;;;;;;5013988;28;20030;-69
2021/05/20 09:30:31;;;;;;;9.18;3.60;;;;;;;;;;5013726;28;20053;-69
2021/05/20 09:32:59;;;;;;;9.65;3.47;;;;;;;;;;5013326;28;20017;-69
2021/05/20 09:35:30;;;;;;;9.68;3.25;;;;;;;;;;5008406;28;20623;-69
2021/05/20 09:38:11;;;;;;;9.30;2.92;;;;;;;;;;5015985;28;20111;-69
2021/05/20 09:40:43;;;;;;;8.20;3.33;;;;;;;;;;5004459;28;20029;-69
2021/05/20 09:43:15;;;;;;;8.85;3.92;;;;;;;;;;5013039;28;20030;-69
2021/05/20 09:45:43;;;;;;;9.02;4.40;;;;;;;;;;4995707;28;20033;-68
2021/05/20 09:48:10;;;;;;;7.93;3.83;;;;;;;;;;5013122;28;20042;-69
2021/05/20 09:50:38;;;;;;;11.93;4.05;;;;;;;;;;5013340;28;20114;-69
2021/05/20 09:53:09;;;;;;;9.02;3.95;;;;;;;;;;4996030;28;20034;-69
2021/05/20 09:55:37;;;;;;;9.82;3.30;;;;;;;;;;5013083;28;20022;-69
2021/05/20 09:58:10;;;;;;;9.80;3.42;;;;;;;;;;5013294;28;20517;-68
2021/05/20 10:00:39;;;;;;;8.52;3.90;;;;;;;;;;5012867;28;20025;-69
2021/05/20 10:03:06;;;;;;;12.40;2.88;;;;;;;;;;5012864;28;20378;-69
2021/05/20 10:05:38;;;;;;;10.93;4.40;;;;;;;;;;5012037;28;20030;-69
2021/05/20 10:08:07;;;;;;;8.75;3.47;;;;;;;;;;5012574;28;20052;-68
2021/05/20 10:10:38;;;;;;;9.93;3.30;;;;;;;;;;5014460;28;20395;-69
2021/05/20 10:13:06;;;;;;;8.52;3.63;;;;;;;;;;5006665;28;20364;-69
2021/05/20 10:15:34;;;;;;;5.82;3.13;;;;;;;;;;5014091;28;20041;-68
2021/05/20 10:18:05;;;;;;;7.85;3.80;;;;;;;;;;5013067;28;20037;-69
2021/05/20 10:20:34;;;;;;;11.40;3.55;;;;;;;;;;4993711;28;20382;-68
2021/05/20 10:23:01;;;;;;;8.48;3.65;;;;;;;;;;5012842;28;20033;-69
2021/05/20 10:25:29;;;;;;;12.45;5.07;;;;;;;;;;5012449;28;20083;-68
2021/05/20 10:27:56;;;;;;;9.75;3.67;;;;;;;;;;5012890;28;20043;-69
2021/05/20 10:30:24;;;;;;;13.77;5.43;;;;;;;;;;5009526;28;20022;-69
2021/05/20 10:32:55;;;;;;;10.65;5.50;;;;;;;;;;4994694;28;20482;-70
2021/05/20 10:35:22;;;;;;;13.68;6.22;;;;;;;;;;5012193;28;20029;-69
2021/05/20 10:37:56;;;;;;;12.50;6.22;;;;;;;;;;5012234;28;20069;-69
2021/05/20 10:40:25;;;;;;;10.77;5.20;;;;;;;;;;5015981;28;20057;-69
2021/05/20 10:43:22;;;;;;;9.90;4.43;;;;;;;;;;5011677;28;20042;-69
2021/05/20 10:45:59;;;;;;;10.60;3.72;;;;;;;;;;4999175;28;20129;-69
2021/05/20 10:48:27;;;;;;;10.73;4.57;;;;;;;;;;5011480;28;20406;-70
2021/05/20 10:51:02;;;;;;;13.10;4.68;;;;;;;;;;4994108;28;20022;-70
2021/05/20 10:53:45;;;;;;;7.72;4.00;;;;;;;;;;5014976;28;20519;-68
2021/05/20 10:56:15;;;;;;;9.90;4.18;;;;;;;;;;5011896;28;20052;-68
2021/05/20 10:58:47;;;;;;;10.02;3.92;;;;;;;;;;5012077;28;20025;-69
2021/05/20 11:01:34;;;;;;;7.90;4.15;;;;;;;;;;5012519;28;20033;-68
2021/05/20 11:04:02;;;;;;;11.13;4.40;;;;;;;;;;5011543;28;20057;-69
2021/05/20 11:06:39;;;;;;;12.00;4.68;;;;;;;;;;5005830;28;20035;-68
2021/05/20 11:09:06;;;;;;;10.40;4.80;;;;;;;;;;5011132;28;20111;-68
2021/05/20 11:11:34;;;;;;;12.50;4.38;;;;;;;;;;5011451;28;20021;-69
2021/05/20 11:14:02;;;;;;;9.60;4.72;;;;;;;;;;5011680;28;20018;-68
2021/05/20 11:16:31;;;;;;;8.13;4.38;;;;;;;;;;4991780;28;21999;-68
2021/05/20 11:19:16;;;;;;;11.50;5.38;;;;;;;;;;4992033;28;20034;-69
2021/05/20 11:21:59;;;;;;;10.25;4.68;;;;;;;;;;4992225;28;20105;-68
2021/05/20 11:24:30;;;;;;;11.25;4.68;;;;;;;;;;4989670;28;20581;-68
2021/05/20 11:26:57;;;;;;;11.20;5.50;;;;;;;;;;4991791;28;20026;-68
2021/05/20 11:29:25;;;;;;;10.93;4.30;;;;;;;;;;4991639;28;20031;-69
2021/05/20 11:32:03;;;;;;;10.00;4.25;;;;;;;;;;4991788;28;20023;-68
2021/05/20 11:37:04;;;;;;;11.57;6.18;;;;;;;;;;4992059;28;20031;-69
2021/05/20 11:39:31;;;;;;;11.60;5.45;;;;;;;;;;4992064;28;20383;-68
2021/05/20 11:41:59;;;;;;;11.68;5.93;;;;;;;;;;4992613;28;20027;-68
2021/05/20 11:44:27;;;;;;;9.85;5.55;;;;;;;;;;4992054;28;20034;-69
2021/05/20 11:47:14;;;;;;;10.57;5.10;;;;;;;;;;4991854;28;20049;-67
2021/05/20 11:49:44;;;;;;;11.40;4.70;;;;;;;;;;4990065;28;20452;-69
2021/05/20 11:52:12;;;;;;;11.68;5.40;;;;;;;;;;4991083;28;20038;-68
2021/05/20 11:54:41;;;;;;;11.15;5.10;;;;;;;;;;4991687;28;20018;-68
2021/05/20 11:57:09;;;;;;;13.38;5.15;;;;;;;;;;4991790;28;20537;-69
2021/05/20 12:02:41;;;;;;;10.65;5.82;;;;;;;;;;4990630;28;20049;-69
2021/05/20 12:05:09;;;;;;;10.57;5.10;;;;;;;;;;4982901;28;20030;-69
2021/05/20 12:07:39;;;;;;;8.45;5.07;;;;;;;;;;4993610;28;20521;-69
2021/05/20 12:10:13;;;;;;;9.65;4.15;;;;;;;;;;4993784;28;20054;-70
2021/05/20 12:12:41;;;;;;;10.45;4.68;;;;;;;;;;4993690;28;20097;-69
2021/05/20 12:15:12;;;;;;;7.25;3.78;;;;;;;;;;4999333;28;20100;-69
2021/05/20 12:17:39;;;;;;;11.80;5.03;;;;;;;;;;4993139;28;20475;-70
2021/05/20 12:20:06;;;;;;;11.90;4.72;;;;;;;;;;4995030;28;20036;-69
2021/05/20 12:22:34;;;;;;;10.82;5.57;;;;;;;;;;5013964;28;20037;-70
2021/05/20 12:25:06;;;;;;;10.55;4.38;;;;;;;;;;5009735;28;20030;-69
2021/05/20 12:27:36;;;;;;;11.65;4.35;;;;;;;;;;5014372;28;20041;-69
2021/05/20 12:30:21;;;;;;;8.77;4.15;;;;;;;;;;5012899;28;20379;-70
2021/05/20 12:32:49;;;;;;;10.18;4.38;;;;;;;;;;5010395;28;20050;-72
2021/05/20 12:35:42;;;;;;;15.45;4.45;;;;;;;;;;4994772;28;20060;-70
2021/05/20 12:38:13;;;;;;;6.55;3.72;;;;;;;;;;5008553;28;20439;-69
2021/05/20 12:40:43;;;;;;;11.85;4.80;;;;;;;;;;4995746;28;20084;-69
2021/05/20 12:43:11;;;;;;;8.02;3.97;;;;;;;;;;4996122;28;20449;-69
2021/05/20 12:45:40;;;;;;;10.38;4.03;;;;;;;;;;5013345;28;20029;-70
2021/05/20 12:48:23;;;;;;;12.00;4.18;;;;;;;;;;5015019;28;20060;-70
2021/05/20 12:50:51;;;;;;;8.15;4.18;;;;;;;;;;5013787;28;20101;-70
2021/05/20 12:53:29;;;;;;;17.58;5.20;;;;;;;;;;4996092;28;20030;-69
2021/05/20 12:55:59;;;;;;;7.97;4.40;;;;;;;;;;5009343;28;20022;-69
2021/05/20 12:58:26;;;;;;;10.90;5.10;;;;;;;;;;4995856;28;20437;-69
2021/05/20 13:01:01;;;;;;;10.85;5.20;;;;;;;;;;5014228;28;20029;-70
2021/05/20 13:03:48;;;;;;;8.73;4.82;;;;;;;;;;5013892;28;20387;-70
2021/05/20 13:06:28;;;;;;;10.73;4.85;;;;;;;;;;5013103;28;20045;-70
2021/05/20 13:08:56;;;;;;;15.35;5.20;;;;;;;;;;5011563;28;20509;-69
2021/05/20 13:11:30;;;;;;;11.50;4.95;;;;;;;;;;5017152;28;20029;-70
2021/05/20 13:14:16;;;;;;;8.38;4.55;;;;;;;;;;5011389;28;20118;-70
2021/05/20 13:16:50;;;;;;;14.20;5.43;;;;;;;;;;5013733;28;20040;-70
2021/05/20 13:24:45;;;;;;;6.68;4.15;;;;;;;;;;5011656;28;20029;-69
2021/05/20 13:27:18;;;;;;;9.98;4.30;;;;;;;;;;5016159;28;20018;-70
2021/05/20 13:29:56;;;;;;;10.65;4.40;;;;;;;;;;5013575;28;20533;-69
2021/05/20 13:32:34;;;;;;;7.90;4.15;;;;;;;;;;5010234;28;20030;-70
2021/05/20 13:35:02;;;;;;;13.82;4.80;;;;;;;;;;5022056;28;20486;-70
2021/05/20 13:37:32;;;;;;;10.93;4.72;;;;;;;;;;5019898;28;20033;-70
2021/05/20 13:40:01;;;;;;;8.75;4.45;;;;;;;;;;5013431;28;20383;-70
2021/05/20 13:42:28;;;;;;;11.75;4.55;;;;;;;;;;5012765;28;20109;-70
2021/05/20 13:44:57;;;;;;;7.70;3.97;;;;;;;;;;5012867;28;20104;-69
2021/05/20 13:47:25;;;;;;;10.60;5.43;;;;;;;;;;4995503;28;20030;-70
2021/05/20 13:49:52;;;;;;;7.72;4.72;;;;;;;;;;5011217;28;20021;-70
2021/05/20 13:52:30;;;;;;;10.23;4.70;;;;;;;;;;5018991;28;20021;-70
2021/05/20 13:54:57;;;;;;;11.63;4.57;;;;;;;;;;5012971;28;20018;-70
2021/05/20 13:57:24;;;;;;;11.20;5.15;;;;;;;;;;5012279;28;20024;-69
2021/05/20 13:59:51;;;;;;;10.05;4.53;;;;;;;;;;4995483;28;20073;-69
2021/05/20 14:02:23;;;;;;;10.88;4.93;;;;;;;;;;5012573;28;20052;-70
2021/05/20 14:04:50;;;;;;;12.05;5.10;;;;;;;;;;5012814;28;20022;-69
2021/05/20 14:07:18;;;;;;;10.70;4.60;;;;;;;;;;5008456;28;20022;-69
2021/05/20 14:09:49;;;;;;;13.27;5.13;;;;;;;;;;5012104;28;20379;-70
2021/05/20 14:12:17;;;;;;;13.73;5.47;;;;;;;;;;5008831;28;20025;-69
2021/05/20 14:14:46;;;;;;;11.32;5.50;;;;;;;;;;5013027;28;20479;-70
2021/05/20 14:17:14;;;;;;;10.98;5.55;;;;;;;;;;5012409;28;20386;-70
2021/05/20 14:19:45;;;;;;;13.63;5.30;;;;;;;;;;5017059;28;20429;-70
2021/05/20 14:22:14;;;;;;;18.73;6.03;;;;;;;;;;5010458;28;20018;-70
2021/05/20 14:24:44;;;;;;;10.05;5.07;;;;;;;;;;5010510;28;20394;-70
2021/05/20 14:27:14;;;;;;;11.38;6.03;;;;;;;;;;5011955;28;20026;-70
2021/05/20 14:29:42;;;;;;;14.02;5.93;;;;;;;;;;5009353;28;20029;-69
2021/05/20 14:32:09;;;;;;;9.98;4.80;;;;;;;;;;5011913;28;20040;-70
2021/05/20 14:34:36;;;;;;;9.38;4.95;;;;;;;;;;5012983;28;20025;-69
2021/05/20 14:37:04;;;;;;;11.68;4.30;;;;;;;;;;5013561;28;20327;-69
2021/05/20 14:39:31;;;;;;;11.35;5.28;;;;;;;;;;5012370;28;20049;-70
2021/05/20 14:42:00;;;;;;;10.70;4.45;;;;;;;;;;5012518;28;20026;-70
2021/05/20 14:44:27;;;;;;;11.25;5.07;;;;;;;;;;5010258;28;20021;-70
2021/05/20 14:46:54;;;;;;;11.40;5.10;;;;;;;;;;5003835;28;20049;-70
2021/05/20 14:49:38;;;;;;;9.50;5.07;;;;;;;;;;5012335;28;20021;-70
2021/05/20 14:52:11;;;;;;;7.63;4.38;;;;;;;;;;5011743;28;20034;-70
2021/05/20 14:54:44;;;;;;;8.30;4.15;;;;;;;;;;5012158;28;20375;-70
2021/05/20 15:05:12;;;;;;;13.48;4.35;;;;;;;;;;5018889;28;20060;-70
2021/05/20 15:07:41;;;;;;;9.60;4.50;;;;;;;;;;5019804;28;20029;-69
2021/05/20 15:10:26;;;;;;;8.68;4.70;;;;;;;;;;5011269;28;20029;-70
2021/05/20 15:13:03;;;;;;;10.57;5.00;;;;;;;;;;5012239;28;20015;-70